KHTL/HTL METAR and TAF weather

Enter ICAO airport designator
Station Type Date Time Source
KHTL METAR 2022/01/27 22:39 UTC NOAA

KHTL 272239Z AUTO 34011G24KT 4SM -SN SCT021 OVC041 M06/M10 A3003 RMK AO2 P0001 T10611100


Station Type Date Time Source
KHTL Decoded METAR 2022/01/27 22:39 UTC NOAA

ROSCOMMON COUNTY AIRPORT, MI, United States (KHTL) 44-21N 084-40W 351M
Jan 27, 2022 - 05:39 PM EST / 2022.01.27 2239 UTC
Wind: from the NNW (340 degrees) at 13 MPH (11 KT) gusting to 28 MPH (24 KT):0
Visibility: 4 mile(s):0
Sky conditions: overcast
Weather: light snow
Precipitation last hour: 0.01 inches
Temperature: 21.0 F (-6.1 C)
Windchill: 8 F (-13 C):1
Dew Point: 14.0 F (-10.0 C)
Relative Humidity: 73%
Pressure (altimeter): 30.03 in. Hg (1016 hPa)
ob: KHTL 272239Z AUTO 34011G24KT 4SM -SN SCT021 OVC041 M06/M10 A3003 RMK AO2 P0001 T10611100
cycle: 22

Station Type Date Time Source
KHTL TAF UTC NOAA

Error!

Example: see airport list